createdAt,value
2022-12-11T00:00:57.727Z,5.63
2022-12-11T00:03:25.740Z,6.27
2022-12-11T00:05:53.733Z,6.20
2022-12-11T00:08:21.812Z,6.00
2022-12-11T00:10:50.486Z,6.17
2022-12-11T00:13:19.849Z,5.23
2022-12-11T00:15:47.829Z,5.27
2022-12-11T00:18:15.976Z,5.73
2022-12-11T00:20:44.105Z,6.07
2022-12-11T00:23:12.365Z,6.00
2022-12-11T00:25:43.924Z,5.13
2022-12-11T00:28:12.053Z,6.03
2022-12-11T00:30:42.872Z,5.87
2022-12-11T00:33:11.530Z,5.43
2022-12-11T00:35:40.141Z,5.57
2022-12-11T00:38:08.254Z,6.27
2022-12-11T00:40:37.032Z,5.30
2022-12-11T00:43:05.259Z,5.60
2022-12-11T00:45:36.701Z,5.90
2022-12-11T00:48:06.955Z,5.27
2022-12-11T00:50:35.654Z,6.30
2022-12-11T00:53:04.544Z,6.73
2022-12-11T00:55:32.694Z,5.80
2022-12-11T00:58:00.941Z,5.70
2022-12-11T01:00:28.848Z,5.93
2022-12-11T01:02:56.796Z,5.50
2022-12-11T01:05:26.201Z,5.60
2022-12-11T01:07:54.214Z,6.03
2022-12-11T01:10:27.155Z,5.47
2022-12-11T01:12:57.365Z,6.00
2022-12-11T01:15:27.729Z,6.80
2022-12-11T01:17:56.057Z,5.83
2022-12-11T01:20:26.937Z,5.57
2022-12-11T01:22:57.916Z,5.47
2022-12-11T01:25:26.265Z,6.53
2022-12-11T01:27:55.154Z,5.73
2022-12-11T01:30:25.085Z,5.77
2022-12-11T01:32:53.544Z,6.60
2022-12-11T01:35:21.931Z,5.83
2022-12-11T01:37:51.312Z,5.47
2022-12-11T01:40:21.037Z,6.03
2022-12-11T01:42:49.101Z,5.13
2022-12-11T01:45:36.551Z,5.90
2022-12-11T01:48:09.505Z,6.50
2022-12-11T01:50:41.195Z,6.00
2022-12-11T01:53:13.229Z,6.03
2022-12-11T01:55:42.341Z,6.10
2022-12-11T01:58:11.693Z,6.60
2022-12-11T02:00:40.290Z,6.00
2022-12-11T02:03:08.237Z,5.50
2022-12-11T02:05:36.172Z,6.17
2022-12-11T02:08:05.358Z,5.97
2022-12-11T02:10:44.805Z,6.53
2022-12-11T02:13:18.857Z,6.57
2022-12-11T02:15:53.274Z,6.53
2022-12-11T02:18:31.379Z,6.20
2022-12-11T02:21:07.072Z,5.67
2022-12-11T02:23:55.301Z,6.13
2022-12-11T02:26:41.778Z,6.60
2022-12-11T02:29:19.104Z,5.47
2022-12-11T02:31:51.914Z,5.23
2022-12-11T02:34:24.720Z,6.73
2022-12-11T02:36:57.403Z,6.23
2022-12-11T02:39:28.335Z,5.73
2022-12-11T02:41:57.694Z,6.63
2022-12-11T02:44:31.527Z,5.97
2022-12-11T02:47:00.412Z,6.03
2022-12-11T02:49:30.161Z,6.67
2022-12-11T02:52:00.375Z,6.43
2022-12-11T02:54:31.682Z,6.70
2022-12-11T02:57:04.838Z,6.00
2022-12-11T02:59:36.972Z,7.33
2022-12-11T03:02:06.159Z,7.20
2022-12-11T03:04:36.358Z,5.57
2022-12-11T03:07:12.186Z,6.70
2022-12-11T03:09:40.702Z,6.67
2022-12-11T03:12:11.239Z,6.63
2022-12-11T03:14:42.734Z,6.83
2022-12-11T03:17:16.573Z,5.70
2022-12-11T03:19:51.284Z,6.80
2022-12-11T03:22:24.586Z,6.73
2022-12-11T03:24:55.632Z,6.50
2022-12-11T03:27:28.061Z,7.37
2022-12-11T03:30:01.516Z,6.47
2022-12-11T03:32:33.011Z,5.53
2022-12-11T03:35:04.731Z,6.40
2022-12-11T03:37:37.752Z,7.17
2022-12-11T03:40:11.360Z,5.87
2022-12-11T03:42:41.132Z,6.50
2022-12-11T03:45:12.114Z,7.23
2022-12-11T03:47:42.189Z,6.90
2022-12-11T03:50:13.133Z,6.53
2022-12-11T03:52:45.964Z,7.30
2022-12-11T03:55:17.254Z,8.00
2022-12-11T03:57:45.785Z,6.07
2022-12-11T04:00:18.297Z,7.37
2022-12-11T04:03:12.713Z,6.10
2022-12-11T04:05:41.822Z,7.43
2022-12-11T04:08:09.891Z,7.00
2022-12-11T04:10:37.934Z,7.27
2022-12-11T04:13:06.114Z,7.10
2022-12-11T04:15:34.686Z,6.75
2022-12-11T04:18:20.296Z,7.70
2022-12-11T04:21:05.832Z,7.40
2022-12-11T04:23:51.168Z,7.10
2022-12-11T04:26:21.382Z,6.63
2022-12-11T04:28:50.444Z,7.23
2022-12-11T04:31:21.615Z,6.73
2022-12-11T04:33:50.074Z,6.93
2022-12-11T04:36:18.071Z,6.33
2022-12-11T04:38:46.091Z,7.97
2022-12-11T04:41:16.761Z,7.43
2022-12-11T04:43:45.507Z,7.23
2022-12-11T04:46:15.986Z,7.13
2022-12-11T04:48:46.247Z,7.13
2022-12-11T04:51:14.254Z,7.70
2022-12-11T04:53:42.556Z,7.23
2022-12-11T04:56:12.665Z,6.87
2022-12-11T04:58:41.395Z,8.13
2022-12-11T05:01:10.333Z,7.37
2022-12-11T05:03:38.898Z,7.73
2022-12-11T05:06:09.609Z,7.30
2022-12-11T05:08:40.392Z,8.67
2022-12-11T05:11:10.266Z,7.53
2022-12-11T05:13:38.369Z,7.80
2022-12-11T05:16:07.205Z,8.17
2022-12-11T05:18:35.303Z,7.73
2022-12-11T05:21:05.768Z,8.87
2022-12-11T05:23:35.401Z,11.17
2022-12-11T05:26:05.601Z,11.03
2022-12-11T05:28:35.770Z,9.40
2022-12-11T05:31:05.975Z,8.63
2022-12-11T05:33:34.305Z,8.32
2022-12-11T05:36:02.613Z,8.67
2022-12-11T05:38:41.192Z,8.50
2022-12-11T05:41:09.215Z,8.33
2022-12-11T05:43:37.959Z,8.43
2022-12-11T05:46:09.761Z,8.63
2022-12-11T05:48:38.811Z,8.17
2022-12-11T05:51:08.370Z,8.67
2022-12-11T05:53:37.721Z,7.70
2022-12-11T05:56:09.397Z,7.33
2022-12-11T05:58:37.296Z,7.40
2022-12-11T06:01:09.926Z,8.00
2022-12-11T06:03:38.203Z,7.70
2022-12-11T06:06:07.469Z,6.40
2022-12-11T06:08:35.729Z,7.00
2022-12-11T06:11:04.333Z,7.17
2022-12-11T06:13:33.752Z,6.43
2022-12-11T06:16:03.534Z,7.30
2022-12-11T06:18:31.736Z,7.50
2022-12-11T06:20:59.752Z,6.40
2022-12-11T06:23:27.632Z,6.10
2022-12-11T06:25:55.601Z,6.73
2022-12-11T06:28:23.527Z,6.70
2022-12-11T06:30:52.810Z,7.63
2022-12-11T06:33:20.746Z,7.53
2022-12-11T06:35:48.816Z,7.45
2022-12-11T06:38:17.506Z,8.17
2022-12-11T06:40:45.469Z,8.67
2022-12-11T06:43:13.417Z,7.83
2022-12-11T06:45:41.514Z,7.87
2022-12-11T06:48:10.802Z,7.20
2022-12-11T06:50:39.441Z,7.23
2022-12-11T06:53:07.492Z,8.00
2022-12-11T06:55:36.263Z,7.47
2022-12-11T06:58:04.457Z,7.20
2022-12-11T07:00:32.942Z,8.40
2022-12-11T07:03:00.855Z,8.83
2022-12-11T07:05:30.196Z,7.77
2022-12-11T07:07:58.317Z,8.13
2022-12-11T07:10:26.882Z,7.73
2022-12-11T07:12:55.187Z,7.17
2022-12-11T07:15:23.130Z,7.07
2022-12-11T07:17:51.397Z,6.97
2022-12-11T07:20:19.352Z,7.20
2022-12-11T07:22:48.672Z,7.37
2022-12-11T07:25:16.777Z,8.47
2022-12-11T07:27:44.715Z,7.53
2022-12-11T07:30:13.779Z,8.10
2022-12-11T07:32:41.738Z,7.33
2022-12-11T07:35:10.848Z,7.93
2022-12-11T07:37:41.774Z,7.87
2022-12-11T07:40:18.731Z,7.63
2022-12-11T07:42:46.667Z,7.53
2022-12-11T07:45:14.887Z,8.40
2022-12-11T07:47:42.928Z,8.03
2022-12-11T07:50:11.207Z,7.70
2022-12-11T07:52:39.178Z,8.33
2022-12-11T07:55:07.564Z,7.83
2022-12-11T07:57:36.936Z,9.90
2022-12-11T08:00:06.340Z,9.13
2022-12-11T08:02:37.407Z,8.13
2022-12-11T08:05:06.234Z,7.80
2022-12-11T08:07:35.795Z,8.00
2022-12-11T08:10:04.784Z,7.67
2022-12-11T08:12:32.866Z,10.90
2022-12-11T08:15:02.243Z,7.70
2022-12-11T08:17:33.919Z,7.67
2022-12-11T08:20:05.532Z,7.90
2022-12-11T08:22:33.473Z,7.93
2022-12-11T08:25:01.387Z,8.13
2022-12-11T08:27:29.289Z,7.37
2022-12-11T08:29:57.246Z,7.60
2022-12-11T08:32:26.566Z,7.70
2022-12-11T08:34:54.439Z,11.93
2022-12-11T08:37:22.427Z,7.93
2022-12-11T08:39:50.446Z,8.30
2022-12-11T08:42:18.503Z,7.53
2022-12-11T08:44:46.621Z,7.73
2022-12-11T08:47:15.421Z,8.07
2022-12-11T08:49:44.711Z,8.97
2022-12-11T08:52:12.631Z,8.13
2022-12-11T08:54:40.647Z,6.63
2022-12-11T08:57:08.612Z,8.20
2022-12-11T08:59:36.520Z,8.83
2022-12-11T09:02:04.488Z,7.10
2022-12-11T09:04:32.459Z,8.33
2022-12-11T09:07:01.810Z,8.07
2022-12-11T09:09:29.753Z,7.03
2022-12-11T09:11:57.790Z,9.83
2022-12-11T09:14:25.730Z,9.40
2022-12-11T09:16:53.659Z,7.83
2022-12-11T09:19:21.618Z,9.20
2022-12-11T09:21:49.732Z,9.17
2022-12-11T09:24:19.043Z,9.17
2022-12-11T09:26:47.291Z,6.97
2022-12-11T09:29:15.266Z,7.77
2022-12-11T09:31:43.314Z,7.17
2022-12-11T09:34:14.011Z,7.93
2022-12-11T09:36:44.307Z,7.03
2022-12-11T09:39:14.491Z,7.50
2022-12-11T09:41:50.804Z,8.30
2022-12-11T09:44:41.000Z,8.70
2022-12-11T09:47:20.357Z,7.07
2022-12-11T09:49:52.673Z,7.40
2022-12-11T09:52:29.802Z,8.60
2022-12-11T09:55:02.067Z,10.20
2022-12-11T09:57:40.540Z,7.77
2022-12-11T10:00:19.986Z,7.87
2022-12-11T10:03:11.160Z,7.00
2022-12-11T10:05:48.719Z,6.57
2022-12-11T10:08:24.750Z,8.00
2022-12-11T10:10:59.706Z,8.13
2022-12-11T10:13:34.688Z,7.10
2022-12-11T10:16:13.127Z,7.13
2022-12-11T10:18:42.265Z,7.83
2022-12-11T10:21:11.818Z,7.53
2022-12-11T10:23:45.257Z,7.30
2022-12-11T10:26:18.472Z,7.60
2022-12-11T10:28:47.846Z,7.43
2022-12-11T10:31:19.188Z,7.33
2022-12-11T10:33:57.636Z,7.33
2022-12-11T10:36:30.228Z,6.93
2022-12-11T10:38:58.744Z,8.83
2022-12-11T10:41:37.797Z,8.20
2022-12-11T10:44:17.845Z,7.20
2022-12-11T10:46:46.381Z,7.37
2022-12-11T10:49:24.567Z,8.50
2022-12-11T10:51:53.926Z,8.03
2022-12-11T10:54:34.757Z,7.23
2022-12-11T10:57:04.243Z,8.00
2022-12-11T10:59:38.010Z,7.33
2022-12-11T11:02:07.666Z,7.50
2022-12-11T11:04:39.122Z,7.43
2022-12-11T11:07:15.212Z,8.33
2022-12-11T11:09:43.173Z,6.93
2022-12-11T11:12:22.927Z,7.17
2022-12-11T11:15:01.935Z,7.17
2022-12-11T11:17:35.155Z,7.23
2022-12-11T11:20:13.158Z,7.23
2022-12-11T11:22:45.601Z,7.43
2022-12-11T11:25:19.594Z,7.90
2022-12-11T11:27:54.023Z,7.67
2022-12-11T11:30:25.633Z,7.60
2022-12-11T11:32:56.349Z,6.90
2022-12-11T11:35:26.644Z,7.73
2022-12-11T11:38:04.592Z,8.27
2022-12-11T11:40:37.988Z,8.20
2022-12-11T11:43:15.327Z,8.53
2022-12-11T11:45:48.757Z,7.83
2022-12-11T11:48:31.895Z,7.20
2022-12-11T11:51:00.502Z,6.77
2022-12-11T11:53:37.309Z,7.50
2022-12-11T11:56:18.363Z,7.93
2022-12-11T11:58:51.571Z,8.73
2022-12-11T12:01:22.005Z,8.07
2022-12-11T12:03:50.953Z,6.90
2022-12-11T12:06:30.036Z,7.83
2022-12-11T12:09:06.548Z,8.87
2022-12-11T12:11:42.025Z,7.53
2022-12-11T12:14:50.501Z,7.63
2022-12-11T12:17:19.559Z,7.73
2022-12-11T12:19:56.456Z,8.03
2022-12-11T12:22:42.227Z,7.77
2022-12-11T12:25:19.983Z,7.03
2022-12-11T12:27:54.218Z,7.90
2022-12-11T12:30:23.813Z,7.40
2022-12-11T12:33:11.922Z,7.40
2022-12-11T12:35:44.573Z,8.10
2022-12-11T12:38:18.874Z,7.77
2022-12-11T12:40:57.738Z,7.60
2022-12-11T12:43:48.652Z,8.13
2022-12-11T12:46:27.315Z,8.00
2022-12-11T12:48:59.983Z,7.53
2022-12-11T12:51:29.081Z,7.10
2022-12-11T12:54:00.348Z,6.60
2022-12-11T12:56:30.436Z,7.23
2022-12-11T12:58:58.434Z,7.33
2022-12-11T13:01:28.575Z,7.23
2022-12-11T13:04:02.113Z,7.20
2022-12-11T13:06:37.036Z,7.70
2022-12-11T13:09:16.128Z,6.93
2022-12-11T13:11:44.360Z,8.20
2022-12-11T13:14:28.542Z,7.33
2022-12-11T13:17:09.472Z,7.73
2022-12-11T13:19:42.732Z,8.07
2022-12-11T13:22:23.437Z,9.17
2022-12-11T13:25:01.658Z,7.80
2022-12-11T13:27:39.403Z,8.03
2022-12-11T13:30:21.839Z,8.53
2022-12-11T13:32:59.847Z,8.57
2022-12-11T13:35:30.346Z,9.13
2022-12-11T13:38:02.709Z,8.40
2022-12-11T13:40:37.990Z,8.57
2022-12-11T13:43:09.515Z,8.47
2022-12-11T13:45:44.723Z,7.43
2022-12-11T13:48:20.486Z,8.13
2022-12-11T13:50:51.923Z,7.97
2022-12-11T13:53:22.235Z,7.47
2022-12-11T13:55:58.617Z,7.97
2022-12-11T13:58:26.803Z,8.50
2022-12-11T14:01:04.137Z,7.50
2022-12-11T14:03:32.975Z,8.40
2022-12-11T14:06:03.173Z,7.43
2022-12-11T14:08:37.270Z,8.33
2022-12-11T14:11:06.324Z,9.73
2022-12-11T14:13:36.562Z,7.77
2022-12-11T14:16:07.764Z,8.90
2022-12-11T14:18:37.873Z,7.30
2022-12-11T14:21:07.822Z,7.73
2022-12-11T14:23:37.452Z,7.33
2022-12-11T14:26:16.500Z,9.57
2022-12-11T14:28:44.959Z,8.93
2022-12-11T14:31:16.987Z,8.53
2022-12-11T14:33:49.031Z,11.03
2022-12-11T14:36:18.776Z,9.47
2022-12-11T14:38:50.594Z,10.70
2022-12-11T14:41:24.312Z,11.57
2022-12-11T14:43:55.872Z,9.87
2022-12-11T14:46:30.668Z,8.00
2022-12-11T14:49:26.006Z,7.40
2022-12-11T14:51:58.550Z,8.53
2022-12-11T14:54:32.874Z,8.10
2022-12-11T14:57:02.947Z,8.70
2022-12-11T14:59:33.134Z,8.60
2022-12-11T15:02:03.109Z,8.20
2022-12-11T15:04:33.050Z,8.03
2022-12-11T15:07:02.420Z,7.40
2022-12-11T15:09:37.861Z,8.10
2022-12-11T15:12:12.478Z,7.87
2022-12-11T15:14:46.884Z,7.40
2022-12-11T15:17:31.764Z,8.73
2022-12-11T15:20:07.511Z,7.57
2022-12-11T15:22:37.642Z,6.83
2022-12-11T15:25:06.499Z,8.53
2022-12-11T15:27:37.031Z,8.67
2022-12-11T15:30:17.784Z,9.00
2022-12-11T15:32:45.733Z,8.03
2022-12-11T15:35:24.703Z,8.53
2022-12-11T15:37:56.149Z,7.90
2022-12-11T15:40:24.950Z,7.60
2022-12-11T15:42:54.892Z,7.73
2022-12-11T15:45:24.830Z,7.97
2022-12-11T15:47:53.307Z,7.90
2022-12-11T15:50:23.437Z,8.00
2022-12-11T15:52:52.758Z,8.17
2022-12-11T15:55:24.237Z,9.17
2022-12-11T15:57:55.259Z,8.70
2022-12-11T16:00:23.962Z,8.17
2022-12-11T16:02:52.233Z,8.40
2022-12-11T16:05:20.526Z,7.70
2022-12-11T16:07:49.368Z,7.93
2022-12-11T16:10:19.462Z,7.40
2022-12-11T16:12:48.746Z,8.17
2022-12-11T16:15:23.155Z,7.27
2022-12-11T16:17:51.925Z,8.40
2022-12-11T16:20:20.118Z,8.00
2022-12-11T16:22:48.010Z,9.37
2022-12-11T16:25:16.090Z,7.87
2022-12-11T16:27:44.083Z,9.07
2022-12-11T16:30:15.074Z,7.83
2022-12-11T16:32:43.738Z,7.80
2022-12-11T16:35:11.946Z,8.53
2022-12-11T16:37:40.213Z,8.53
2022-12-11T16:40:09.719Z,17.97
2022-12-11T16:42:39.036Z,8.13
2022-12-11T16:45:09.553Z,7.67
2022-12-11T16:47:39.145Z,8.27
2022-12-11T16:50:08.094Z,7.43
2022-12-11T16:52:36.171Z,7.77
2022-12-11T16:55:04.203Z,8.47
2022-12-11T16:57:32.637Z,8.23
2022-12-11T17:00:04.203Z,8.43
2022-12-11T17:02:32.354Z,9.10
2022-12-11T17:05:01.667Z,9.37
2022-12-11T17:07:29.718Z,9.10
2022-12-11T17:09:57.649Z,8.10
2022-12-11T17:12:27.789Z,9.90
2022-12-11T17:14:55.783Z,7.73
2022-12-11T17:17:24.234Z,7.87
2022-12-11T17:19:52.207Z,8.27
2022-12-11T17:22:21.880Z,7.73
2022-12-11T17:24:49.900Z,8.02
2022-12-11T17:27:18.087Z,7.90
2022-12-11T17:29:47.406Z,8.40
2022-12-11T17:32:16.714Z,8.07
2022-12-11T17:34:44.834Z,9.57
2022-12-11T17:37:13.162Z,8.10
2022-12-11T17:39:42.458Z,9.07
2022-12-11T17:42:10.435Z,8.30
2022-12-11T17:44:38.999Z,8.33
2022-12-11T17:47:11.089Z,8.80
2022-12-11T17:49:39.487Z,8.13
2022-12-11T17:52:07.745Z,8.13
2022-12-11T17:54:36.157Z,8.03
2022-12-11T17:57:06.680Z,9.07
2022-12-11T17:59:34.988Z,7.33
2022-12-11T18:02:02.977Z,8.27
2022-12-11T18:04:31.243Z,7.27
2022-12-11T18:06:59.548Z,7.67
2022-12-11T18:09:27.415Z,7.80
2022-12-11T18:11:55.705Z,8.60
2022-12-11T18:14:25.542Z,7.53
2022-12-11T18:16:53.726Z,8.52
2022-12-11T18:19:22.790Z,9.07
2022-12-11T18:21:50.822Z,7.47
2022-12-11T18:24:18.764Z,7.63
2022-12-11T18:26:46.758Z,9.00
2022-12-11T18:29:14.760Z,8.57
2022-12-11T18:31:44.040Z,7.57
2022-12-11T18:34:12.393Z,7.67
2022-12-11T18:36:41.664Z,6.87
2022-12-11T18:39:09.756Z,6.90
2022-12-11T18:41:37.840Z,6.87
2022-12-11T18:44:09.706Z,7.67
2022-12-11T18:46:39.979Z,7.27
2022-12-11T18:49:09.329Z,7.13
2022-12-11T18:51:37.328Z,7.03
2022-12-11T18:54:05.499Z,7.53
2022-12-11T18:56:33.486Z,7.60
2022-12-11T18:59:01.421Z,8.73
2022-12-11T19:01:30.313Z,8.37
2022-12-11T19:04:04.452Z,10.97
2022-12-11T19:06:35.730Z,9.10
2022-12-11T19:09:05.908Z,8.87
2022-12-11T19:11:35.988Z,8.30
2022-12-11T19:14:06.103Z,9.00
2022-12-11T19:16:35.958Z,8.60
2022-12-11T19:19:06.901Z,8.63
2022-12-11T19:21:37.694Z,7.90
2022-12-11T19:24:06.770Z,7.30
2022-12-11T19:26:35.182Z,8.80
2022-12-11T19:29:03.176Z,8.63
2022-12-11T19:31:33.709Z,7.83
2022-12-11T19:34:03.131Z,8.47
2022-12-11T19:36:33.641Z,7.57
2022-12-11T19:39:07.105Z,6.10
2022-12-11T19:41:38.044Z,7.20
2022-12-11T19:44:06.101Z,7.20
2022-12-11T19:46:34.046Z,7.57
2022-12-11T19:49:02.454Z,8.00
2022-12-11T19:51:33.880Z,9.30
2022-12-11T19:54:04.106Z,8.80
2022-12-11T19:56:33.638Z,7.90
2022-12-11T19:59:02.961Z,9.20
2022-12-11T20:01:33.360Z,8.63
2022-12-11T20:04:03.904Z,9.20
2022-12-11T20:06:33.890Z,8.77
2022-12-11T20:09:04.163Z,7.50
2022-12-11T20:11:33.109Z,7.23
2022-12-11T20:14:01.497Z,6.50
2022-12-11T20:17:01.573Z,5.83
2022-12-11T20:19:17.829Z,7.33
2022-12-11T20:21:45.845Z,6.70
2022-12-11T20:24:15.174Z,7.67
2022-12-11T20:26:43.155Z,7.67
2022-12-11T20:29:11.091Z,6.60
2022-12-11T20:31:39.348Z,8.00
2022-12-11T20:34:07.857Z,6.57
2022-12-11T20:36:36.369Z,6.70
2022-12-11T20:39:06.215Z,6.73
2022-12-11T20:41:35.625Z,7.77
2022-12-11T20:44:03.695Z,6.50
2022-12-11T20:46:31.713Z,7.07
2022-12-11T20:48:59.787Z,7.27
2022-12-11T20:51:36.610Z,6.63
2022-12-11T20:54:04.843Z,6.17
2022-12-11T20:56:32.905Z,6.93
2022-12-11T20:59:02.436Z,6.70
2022-12-11T21:01:32.501Z,7.97
2022-12-11T21:04:02.462Z,7.33
2022-12-11T21:06:32.172Z,5.83
2022-12-11T21:09:01.373Z,6.43
2022-12-11T21:11:29.545Z,6.53
2022-12-11T21:13:58.174Z,8.10
2022-12-11T21:16:27.829Z,6.45
2022-12-11T21:18:56.386Z,7.17
2022-12-11T21:21:24.866Z,5.60
2022-12-11T21:23:52.909Z,5.70
2022-12-11T21:26:21.389Z,6.93
2022-12-11T21:28:49.312Z,6.47
2022-12-11T21:31:19.018Z,6.13
2022-12-11T21:33:49.345Z,6.20
2022-12-11T21:36:18.093Z,6.50
2022-12-11T21:38:47.286Z,7.83
2022-12-11T21:41:18.068Z,6.63
2022-12-11T21:44:49.823Z,6.13
2022-12-11T21:46:35.501Z,6.13
2022-12-11T21:49:05.129Z,7.20
2022-12-11T21:51:37.897Z,5.90
2022-12-11T21:54:10.383Z,5.63
2022-12-11T21:56:38.298Z,6.63
2022-12-11T21:59:06.700Z,6.60
2022-12-11T22:01:38.238Z,6.80
2022-12-11T22:04:08.614Z,6.60
2022-12-11T22:06:36.755Z,6.20
2022-12-11T22:09:05.432Z,6.83
2022-12-11T22:11:35.545Z,6.43
2022-12-11T22:14:04.091Z,6.70
2022-12-11T22:16:32.105Z,6.57
2022-12-11T22:19:00.100Z,7.57
2022-12-11T22:21:29.457Z,9.47
2022-12-11T22:23:57.506Z,12.17
2022-12-11T22:26:27.938Z,9.93
2022-12-11T22:28:56.930Z,7.87
2022-12-11T22:31:27.118Z,6.63
2022-12-11T22:33:56.113Z,6.80
2022-12-11T22:36:25.288Z,6.60
2022-12-11T22:38:54.833Z,5.90
2022-12-11T22:41:26.286Z,6.03
2022-12-11T22:43:55.072Z,6.13
2022-12-11T22:46:26.096Z,6.73
2022-12-11T22:48:54.557Z,7.40
2022-12-11T22:51:23.316Z,6.90
2022-12-11T22:53:51.540Z,6.80
2022-12-11T22:56:20.882Z,7.53
2022-12-11T22:58:48.851Z,6.83
2022-12-11T23:01:19.592Z,6.70
2022-12-11T23:03:47.642Z,8.07
2022-12-11T23:06:18.911Z,6.40
2022-12-11T23:08:46.906Z,6.17
2022-12-11T23:11:16.721Z,6.23
2022-12-11T23:13:46.084Z,5.83
2022-12-11T23:16:14.416Z,5.70
2022-12-11T23:18:42.916Z,5.70
2022-12-11T23:21:12.070Z,7.20
2022-12-11T23:23:40.713Z,7.40
2022-12-11T23:26:10.779Z,8.07
2022-12-11T23:28:39.178Z,7.23
2022-12-11T23:31:09.083Z,6.57
2022-12-11T23:33:37.079Z,6.50
2022-12-11T23:36:05.289Z,6.30
2022-12-11T23:38:33.563Z,7.30
2022-12-11T23:41:03.202Z,7.23
2022-12-11T23:43:31.345Z,8.53
2022-12-11T23:45:59.327Z,8.23
2022-12-11T23:48:28.650Z,7.67
2022-12-11T23:51:00.464Z,7.43
2022-12-11T23:53:28.434Z,7.20
2022-12-11T23:55:56.565Z,7.03
2022-12-11T23:58:24.461Z,6.60
